Time;durP1;ratioP1;P1;durP2;ratioP2;P2;SDS_P1;SDS_P2;PMS_P1;PMS_P2;Temp;Humidity;BMP_temperature;BMP_pressure;BME280_temperature;BME280_humidity;BME280_pressure;Samples;Min_cycle;Max_cycle;Signal;HPM_P1;HPM_P2
2022/05/25 00:01:10;;;;;;;26.67;6.60;;;19.20;78.20;;;;;;5033527;28;20056;-62
2022/05/25 00:03:36;;;;;;;23.90;6.35;;;19.20;78.30;;;;;;5032775;28;20466;-65
2022/05/25 00:06:04;;;;;;;31.30;7.15;;;19.20;78.30;;;;;;5028865;28;20033;-62
2022/05/25 00:08:29;;;;;;;30.40;7.55;;;19.20;78.40;;;;;;5018760;28;20438;-62
2022/05/25 00:10:55;;;;;;;18.88;6.38;;;19.20;78.50;;;;;;5036206;28;20045;-62
2022/05/25 00:13:20;;;;;;;24.27;6.57;;;19.20;78.60;;;;;;5027955;28;20025;-62
2022/05/25 00:15:46;;;;;;;25.55;6.95;;;19.20;78.60;;;;;;5028531;28;20067;-61
2022/05/25 00:18:12;;;;;;;26.08;6.55;;;19.20;78.70;;;;;;5030492;28;20547;-61
2022/05/25 00:20:37;;;;;;;24.45;6.85;;;19.10;78.70;;;;;;5030224;28;20441;-61
2022/05/25 00:23:03;;;;;;;27.35;6.05;;;19.10;78.80;;;;;;5013673;28;20026;-62
2022/05/25 00:25:33;;;;;;;23.92;5.95;;;19.10;78.90;;;;;;5033258;28;20104;-62
2022/05/25 00:28:00;;;;;;;14.55;5.20;;;19.10;79.00;;;;;;5030982;28;20070;-61
2022/05/25 00:30:26;;;;;;;25.75;6.20;;;19.00;79.00;;;;;;5031177;28;20051;-61
2022/05/25 00:32:53;;;;;;;12.30;5.32;;;19.10;79.10;;;;;;5021612;28;20551;-61
2022/05/25 00:35:19;;;;;;;20.60;6.50;;;19.10;79.20;;;;;;5032458;28;20056;-61
2022/05/25 00:37:45;;;;;;;24.17;7.93;;;19.10;79.40;;;;;;5016570;28;20059;-62
2022/05/25 00:40:13;;;;;;;26.63;7.72;;;19.10;79.40;;;;;;5034740;28;20500;-61
2022/05/25 00:42:38;;;;;;;20.25;6.18;;;19.10;79.50;;;;;;5030659;28;20051;-61
2022/05/25 00:45:05;;;;;;;26.92;6.07;;;19.10;79.50;;;;;;5031602;28;20053;-61
2022/05/25 00:47:30;;;;;;;20.40;5.95;;;19.10;79.60;;;;;;5028163;28;20134;-61
2022/05/25 00:49:56;;;;;;;24.48;6.45;;;19.10;79.60;;;;;;5026770;28;20045;-62
2022/05/25 00:52:22;;;;;;;23.55;5.88;;;19.00;79.70;;;;;;5026746;28;20348;-62
2022/05/25 00:54:55;;;;;;;20.92;5.53;;;19.00;79.80;;;;;;5016115;28;20121;-62
2022/05/25 00:57:30;;;;;;;24.42;5.55;;;19.00;79.80;;;;;;5015297;28;20064;-61
2022/05/25 00:59:58;;;;;;;20.50;5.63;;;19.00;79.90;;;;;;5032612;28;20499;-62
2022/05/25 01:02:26;;;;;;;22.02;6.22;;;18.90;79.90;;;;;;5029439;28;20396;-61
2022/05/25 01:04:52;;;;;;;24.55;5.53;;;18.90;79.90;;;;;;5017829;28;20052;-62
2022/05/25 01:07:49;;;;;;;19.98;5.05;;;18.90;79.90;;;;;;5036966;28;20468;-61
2022/05/25 01:10:54;;;;;;;16.77;4.90;;;18.90;80.00;;;;;;5027107;28;20075;-62
2022/05/25 01:13:25;;;;;;;16.55;4.50;;;18.90;80.10;;;;;;5033318;28;20164;-62
2022/05/25 01:16:12;;;;;;;18.15;5.47;;;18.90;80.20;;;;;;5036146;28;20256;-63
2022/05/25 01:18:43;;;;;;;16.58;4.95;;;18.90;80.20;;;;;;5029633;28;20075;-61
2022/05/25 01:21:20;;;;;;;17.80;4.97;;;18.90;80.30;;;;;;5033887;28;20064;-62
2022/05/25 01:24:09;;;;;;;18.95;4.18;;;18.80;80.40;;;;;;5027877;28;20045;-62
2022/05/25 01:26:53;;;;;;;16.02;4.72;;;18.90;80.40;;;;;;5038051;28;20021;-61
2022/05/25 01:29:45;;;;;;;18.42;4.60;;;18.80;80.50;;;;;;5040260;28;20033;-61
2022/05/25 01:32:10;;;;;;;20.90;4.20;;;18.80;80.50;;;;;;5025250;28;20120;-62
2022/05/25 01:34:43;;;;;;;15.50;4.38;;;18.80;80.60;;;;;;5031583;28;20171;-62
2022/05/25 01:37:11;;;;;;;14.55;4.30;;;18.80;80.60;;;;;;5023177;28;20022;-62
2022/05/25 01:39:40;;;;;;;17.85;4.75;;;18.80;80.60;;;;;;5035318;28;20048;-60
2022/05/25 01:42:16;;;;;;;14.32;3.97;;;18.80;80.60;;;;;;5028641;28;20033;-63
2022/05/25 01:44:43;;;;;;;13.73;4.32;;;18.80;80.70;;;;;;5019142;28;20079;-61
2022/05/25 01:47:11;;;;;;;11.25;4.30;;;18.80;80.80;;;;;;5027591;28;20042;-61
2022/05/25 01:49:45;;;;;;;12.43;4.30;;;18.80;80.90;;;;;;5030800;28;20021;-61
2022/05/25 01:52:13;;;;;;;13.05;4.45;;;18.80;80.90;;;;;;5005398;28;20147;-61
2022/05/25 01:54:41;;;;;;;10.73;4.47;;;18.80;81.00;;;;;;5006994;28;20496;-61
2022/05/25 01:57:09;;;;;;;11.05;3.80;;;18.70;81.00;;;;;;5032887;28;20033;-61
2022/05/25 01:59:35;;;;;;;13.50;4.07;;;18.70;81.00;;;;;;5022145;28;20057;-62
2022/05/25 02:04:47;;;;;;;8.65;3.65;;;18.70;81.20;;;;;;5021324;28;20052;-62
2022/05/25 02:07:44;;;;;;;10.52;4.00;;;18.60;81.30;;;;;;5023152;28;20055;-62
2022/05/25 02:10:12;;;;;;;14.40;4.05;;;18.60;81.30;;;;;;5028211;28;20088;-61
2022/05/25 02:12:57;;;;;;;12.10;5.80;;;18.70;81.40;;;;;;5026028;28;20045;-61
2022/05/25 02:15:51;;;;;;;13.27;6.45;;;18.60;81.40;;;;;;5035132;28;20059;-61
2022/05/25 02:18:33;;;;;;;26.63;5.90;;;18.60;81.50;;;;;;5032159;28;20496;-62
2022/05/25 02:21:25;;;;;;;15.73;5.20;;;18.60;81.50;;;;;;5036866;28;20025;-62
2022/05/25 02:23:56;;;;;;;15.68;4.65;;;18.60;81.70;;;;;;5031938;28;20029;-62
2022/05/25 02:26:27;;;;;;;16.55;4.95;;;18.60;81.90;;;;;;5012858;28;20076;-61
2022/05/25 02:29:11;;;;;;;14.35;4.72;;;18.60;81.90;;;;;;5035298;28;20398;-61
2022/05/25 02:31:42;;;;;;;15.25;4.32;;;18.60;81.90;;;;;;5034255;28;20440;-62
2022/05/25 02:34:09;;;;;;;12.85;4.57;;;18.60;81.90;;;;;;5008116;28;20044;-61
2022/05/25 02:36:35;;;;;;;13.48;4.15;;;18.60;81.80;;;;;;5023801;28;20400;-61
2022/05/25 02:39:04;;;;;;;17.35;4.22;;;18.60;81.70;;;;;;5034040;28;20037;-62
2022/05/25 02:41:31;;;;;;;14.88;4.65;;;18.60;81.90;;;;;;5038909;28;20452;-60
2022/05/25 02:43:57;;;;;;;20.48;5.03;;;18.60;81.90;;;;;;5023126;28;20117;-62
2022/05/25 02:46:23;;;;;;;13.60;5.10;;;18.60;82.00;;;;;;5036765;28;20041;-61
2022/05/25 02:48:48;;;;;;;16.70;5.65;;;18.60;82.20;;;;;;5017197;28;20456;-62
2022/05/25 02:51:14;;;;;;;18.42;5.43;;;18.60;82.40;;;;;;5031931;28;20438;-61
2022/05/25 02:53:40;;;;;;;16.35;4.90;;;18.60;82.40;;;;;;5028528;28;20045;-62
2022/05/25 02:56:06;;;;;;;14.77;5.85;;;18.50;82.50;;;;;;5032924;28;20116;-61
2022/05/25 02:58:31;;;;;;;12.20;5.15;;;18.50;82.60;;;;;;5031692;28;20456;-61
2022/05/25 03:00:57;;;;;;;21.02;5.50;;;18.50;82.70;;;;;;5031223;28;20041;-62
2022/05/25 03:03:22;;;;;;;18.52;6.07;;;18.50;83.00;;;;;;5027575;28;20068;-61
2022/05/25 03:05:48;;;;;;;16.25;4.97;;;18.50;83.20;;;;;;5030748;28;20611;-62
2022/05/25 03:08:14;;;;;;;16.30;5.68;;;18.50;83.50;;;;;;5027997;28;20042;-61
2022/05/25 03:10:39;;;;;;;14.98;5.38;;;18.50;83.60;;;;;;5021784;28;20477;-61
2022/05/25 03:13:06;;;;;;;20.67;5.78;;;18.50;83.50;;;;;;5015993;28;20064;-61
2022/05/25 03:15:31;;;;;;;22.17;6.15;;;18.50;83.50;;;;;;5033446;28;20028;-61
2022/05/25 03:17:57;;;;;;;18.05;5.32;;;18.50;83.40;;;;;;5032465;28;20044;-61
2022/05/25 03:20:22;;;;;;;18.75;5.20;;;18.50;83.50;;;;;;5037081;28;20648;-61
2022/05/25 03:22:48;;;;;;;22.50;6.18;;;18.50;83.40;;;;;;5036986;28;20045;-61
2022/05/25 03:25:14;;;;;;;18.00;5.53;;;18.50;83.60;;;;;;5040100;28;20033;-62
2022/05/25 03:27:39;;;;;;;16.80;4.72;;;18.50;83.30;;;;;;5038115;28;20477;-61
2022/05/25 03:30:06;;;;;;;13.68;4.28;;;18.50;83.20;;;;;;5038735;28;20120;-62
2022/05/25 03:32:31;;;;;;;12.48;4.65;;;18.50;83.30;;;;;;5028822;28;20504;-60
2022/05/25 03:34:57;;;;;;;16.63;5.03;;;18.50;83.20;;;;;;5030831;28;20033;-62
2022/05/25 03:37:23;;;;;;;22.13;5.70;;;18.50;83.20;;;;;;5037418;28;20029;-61
2022/05/25 03:39:48;;;;;;;14.45;5.47;;;18.50;83.60;;;;;;5029818;28;20188;-62
2022/05/25 03:42:14;;;;;;;16.08;5.78;;;18.50;83.50;;;;;;5027155;28;20029;-60
2022/05/25 03:44:40;;;;;;;15.50;6.63;;;18.40;83.50;;;;;;5018034;28;20045;-61
2022/05/25 03:47:05;;;;;;;12.63;5.93;;;18.40;83.60;;;;;;5033336;28;20032;-61
2022/05/25 03:49:31;;;;;;;15.98;5.45;;;18.40;83.60;;;;;;5024924;28;20033;-61
2022/05/25 03:51:56;;;;;;;19.52;6.07;;;18.40;83.60;;;;;;5032930;28;20025;-61
2022/05/25 03:54:22;;;;;;;12.60;4.78;;;18.40;83.60;;;;;;5031446;28;20044;-61
2022/05/25 03:56:47;;;;;;;15.13;5.43;;;18.40;83.60;;;;;;5029408;28;20108;-61
2022/05/25 03:59:13;;;;;;;17.05;5.75;;;18.30;83.60;;;;;;5027028;28;20056;-61
2022/05/25 04:01:38;;;;;;;14.15;5.28;;;18.30;83.60;;;;;;5028441;28;20072;-61
2022/05/25 04:04:04;;;;;;;16.02;5.55;;;18.40;83.70;;;;;;5014512;28;20152;-62
2022/05/25 04:06:30;;;;;;;14.50;5.15;;;18.30;83.60;;;;;;5022744;28;20072;-61
2022/05/25 04:08:55;;;;;;;11.75;5.50;;;18.30;83.60;;;;;;5032532;28;20420;-61
2022/05/25 04:11:21;;;;;;;12.20;4.70;;;18.30;83.70;;;;;;5004509;28;20025;-61
2022/05/25 04:13:46;;;;;;;10.60;4.45;;;18.30;83.70;;;;;;5037785;28;20038;-61
2022/05/25 04:16:12;;;;;;;9.80;4.43;;;18.30;83.70;;;;;;5017170;28;20022;-61
2022/05/25 04:18:37;;;;;;;13.02;4.93;;;18.30;83.70;;;;;;5030555;28;20083;-62
2022/05/25 04:21:03;;;;;;;12.65;4.53;;;18.20;83.60;;;;;;5033402;28;20022;-61
2022/05/25 04:23:29;;;;;;;10.18;4.45;;;18.30;83.60;;;;;;5023108;28;20041;-62
2022/05/25 04:25:54;;;;;;;12.13;4.00;;;18.20;83.60;;;;;;5029916;28;20021;-61
2022/05/25 04:28:20;;;;;;;12.30;4.43;;;18.20;83.60;;;;;;5026398;28;20033;-62
2022/05/25 04:30:45;;;;;;;12.57;3.70;;;18.20;83.60;;;;;;5010565;28;20081;-61
2022/05/25 04:33:11;;;;;;;17.77;5.20;;;18.20;83.50;;;;;;5029684;28;20535;-62
2022/05/25 04:35:37;;;;;;;46.38;7.40;;;18.20;83.60;;;;;;5028219;28;20040;-62
2022/05/25 04:38:03;;;;;;;44.05;7.10;;;18.20;83.50;;;;;;5009236;28;20040;-62
2022/05/25 04:40:40;;;;;;;33.55;7.80;;;18.20;83.60;;;;;;5013496;28;20070;-62
2022/05/25 04:43:08;;;;;;;33.90;6.57;;;18.30;83.70;;;;;;5017717;28;20117;-62
2022/05/25 04:45:34;;;;;;;44.35;7.57;;;18.20;83.70;;;;;;5030736;28;20453;-61
2022/05/25 04:48:00;;;;;;;24.27;5.95;;;18.20;83.50;;;;;;5028104;28;20112;-61
2022/05/25 04:50:28;;;;;;;32.28;5.93;;;18.20;83.60;;;;;;5015593;28;20482;-61
2022/05/25 04:52:56;;;;;;;34.70;6.18;;;18.20;83.60;;;;;;5035333;28;20041;-62
2022/05/25 04:58:13;;;;;;;32.25;6.25;;;18.20;83.60;;;;;;5036332;28;20036;-62
2022/05/25 05:00:38;;;;;;;25.20;6.35;;;18.20;83.60;;;;;;5011023;28;20041;-62
2022/05/25 05:03:04;;;;;;;29.15;6.55;;;18.20;83.70;;;;;;5025677;28;20207;-61
2022/05/25 05:05:29;;;;;;;28.77;5.90;;;18.10;83.60;;;;;;5034312;28;20029;-60
2022/05/25 05:07:55;;;;;;;24.02;5.75;;;18.20;83.70;;;;;;5024397;28;20037;-62
2022/05/25 05:10:20;;;;;;;24.88;5.93;;;18.20;83.70;;;;;;5027644;28;20521;-62
2022/05/25 05:12:46;;;;;;;32.35;5.82;;;18.20;83.80;;;;;;5038183;28;20144;-60
2022/05/25 05:15:12;;;;;;;30.85;5.60;;;18.10;83.80;;;;;;5040253;28;20124;-62
2022/05/25 05:17:38;;;;;;;23.52;5.32;;;18.10;83.70;;;;;;5031267;28;20025;-61
2022/05/25 05:20:04;;;;;;;19.58;4.63;;;18.10;83.70;;;;;;5031238;28;20507;-61
2022/05/25 05:22:29;;;;;;;27.45;5.32;;;18.10;83.70;;;;;;5036345;28;20028;-61
2022/05/25 05:24:55;;;;;;;25.17;4.65;;;18.20;83.80;;;;;;5038123;28;20341;-62
2022/05/25 05:27:20;;;;;;;20.80;4.45;;;18.10;83.70;;;;;;5025350;28;20322;-62
2022/05/25 05:29:46;;;;;;;20.60;5.07;;;18.20;83.70;;;;;;5031043;28;20474;-61
2022/05/25 05:32:12;;;;;;;19.88;4.55;;;18.20;83.90;;;;;;5031459;28;20136;-61
2022/05/25 05:34:38;;;;;;;20.45;4.90;;;18.20;84.00;;;;;;5035526;28;20524;-61
2022/05/25 05:37:09;;;;;;;24.40;4.82;;;18.20;84.00;;;;;;5039456;28;20233;-62
2022/05/25 05:39:37;;;;;;;16.25;4.35;;;18.20;84.10;;;;;;5019941;28;20029;-62
2022/05/25 05:42:07;;;;;;;12.75;4.00;;;18.20;84.20;;;;;;5027490;28;20158;-61
2022/05/25 05:44:44;;;;;;;14.63;4.18;;;18.20;84.00;;;;;;5012884;28;20025;-61
2022/05/25 05:47:12;;;;;;;16.77;3.97;;;18.20;84.00;;;;;;5023075;28;21547;-61
2022/05/25 05:49:38;;;;;;;15.10;3.70;;;18.20;84.00;;;;;;5016282;28;20060;-61
2022/05/25 05:52:03;;;;;;;24.52;4.18;;;18.20;84.10;;;;;;5028862;28;20469;-61
2022/05/25 05:54:29;;;;;;;15.35;3.83;;;18.20;84.20;;;;;;5026760;28;20037;-61
2022/05/25 05:56:55;;;;;;;15.88;3.83;;;18.30;84.30;;;;;;5027644;28;20063;-61
2022/05/25 05:59:20;;;;;;;15.57;3.92;;;18.20;84.30;;;;;;5033793;28;20033;-62
2022/05/25 06:01:46;;;;;;;21.95;4.03;;;18.20;84.30;;;;;;5022232;28;20148;-60
2022/05/25 06:04:11;;;;;;;13.10;3.28;;;18.20;84.40;;;;;;5035751;28;20034;-62
2022/05/25 06:06:37;;;;;;;13.93;3.42;;;18.30;84.60;;;;;;5025198;28;20033;-62
2022/05/25 06:09:03;;;;;;;19.20;3.53;;;18.30;84.60;;;;;;5024643;28;20564;-62
2022/05/25 06:11:28;;;;;;;26.80;3.55;;;18.20;84.50;;;;;;5025020;28;20095;-62
2022/05/25 06:13:54;;;;;;;11.00;3.50;;;18.20;84.80;;;;;;5033396;28;20100;-62
2022/05/25 06:21:48;;;;;;;10.70;3.08;;;18.20;85.10;;;;;;5024840;28;20546;-62
2022/05/25 06:24:13;;;;;;;10.68;2.97;;;18.10;85.10;;;;;;5000553;28;20300;-62
2022/05/25 06:26:39;;;;;;;9.98;3.28;;;18.20;85.40;;;;;;5029408;28;20102;-61
2022/05/25 06:29:04;;;;;;;13.10;2.80;;;18.20;85.50;;;;;;5031547;28;20035;-61
2022/05/25 06:31:30;;;;;;;18.52;3.50;;;18.10;85.40;;;;;;5030202;28;20412;-62
2022/05/25 06:33:56;;;;;;;15.63;3.13;;;18.20;85.60;;;;;;5028822;28;20122;-61
2022/05/25 06:36:23;;;;;;;10.50;2.63;;;18.20;86.00;;;;;;5025976;28;20028;-61
2022/05/25 06:38:49;;;;;;;10.40;2.60;;;18.10;86.60;;;;;;5029666;28;20585;-62
2022/05/25 06:41:14;;;;;;;6.80;2.50;;;18.10;86.80;;;;;;5015048;28;20127;-62
2022/05/25 06:43:40;;;;;;;15.45;3.30;;;18.10;86.90;;;;;;5031131;28;20041;-61
2022/05/25 06:46:07;;;;;;;8.75;2.75;;;18.10;87.30;;;;;;5020392;28;20072;-62
2022/05/25 06:48:32;;;;;;;11.55;2.67;;;18.10;87.10;;;;;;5032001;28;20767;-62
2022/05/25 06:50:58;;;;;;;10.48;2.90;;;18.00;87.10;;;;;;5016866;28;20043;-62
2022/05/25 06:53:23;;;;;;;13.85;2.72;;;18.00;87.20;;;;;;5033474;28;20912;-61
2022/05/25 06:55:49;;;;;;;6.90;2.75;;;18.00;87.30;;;;;;5035280;28;20623;-61
2022/05/25 06:58:14;;;;;;;7.70;2.72;;;18.00;87.60;;;;;;5001683;28;20040;-62
2022/05/25 07:00:40;;;;;;;20.73;2.05;;;17.80;87.40;;;;;;5032967;28;20041;-61
2022/05/25 07:03:06;;;;;;;8.07;2.80;;;18.00;87.40;;;;;;5036113;28;20037;-62
2022/05/25 07:05:32;;;;;;;12.40;3.55;;;18.00;87.50;;;;;;5016089;28;20026;-62
2022/05/25 07:07:57;;;;;;;16.52;2.92;;;18.10;87.40;;;;;;5039885;28;20021;-62
2022/05/25 07:10:23;;;;;;;38.72;5.35;;;18.10;87.60;;;;;;5037101;28;20275;-61
2022/05/25 07:12:48;;;;;;;35.10;5.78;;;18.10;87.50;;;;;;5035001;28;20095;-62
2022/05/25 07:15:14;;;;;;;36.55;5.80;;;18.20;87.40;;;;;;5035458;28;20419;-62
2022/05/25 07:17:40;;;;;;;10.75;3.60;;;18.20;87.00;;;;;;5035044;28;20508;-62
2022/05/25 07:20:06;;;;;;;25.75;4.13;;;18.20;87.10;;;;;;5028215;28;20512;-61
2022/05/25 07:22:32;;;;;;;33.65;4.88;;;18.20;87.10;;;;;;5018014;28;20032;-62
2022/05/25 07:24:58;;;;;;;32.10;4.75;;;18.30;87.40;;;;;;5013120;28;20041;-61
2022/05/25 07:27:23;;;;;;;44.13;5.65;;;18.30;87.10;;;;;;5021062;28;20048;-61
2022/05/25 07:29:49;;;;;;;48.47;6.32;;;18.30;86.90;;;;;;5019964;28;20072;-60
2022/05/25 07:32:14;;;;;;;53.00;6.82;;;18.30;86.70;;;;;;5014434;28;20060;-61
2022/05/25 07:34:46;;;;;;;39.50;5.85;;;18.40;87.20;;;;;;5006132;28;20333;-60
2022/05/25 07:37:18;;;;;;;36.60;6.15;;;18.40;87.30;;;;;;5018911;28;20599;-63
2022/05/25 07:39:54;;;;;;;33.92;5.80;;;18.40;87.20;;;;;;5021248;28;20456;-63
2022/05/25 07:42:19;;;;;;;33.75;6.07;;;18.50;87.20;;;;;;5027539;28;20123;-62
2022/05/25 07:44:47;;;;;;;50.78;6.60;;;18.50;86.70;;;;;;5025864;28;20317;-62
2022/05/25 07:47:14;;;;;;;32.25;6.40;;;18.60;87.70;;;;;;5010052;28;20513;-63
2022/05/25 07:49:39;;;;;;;42.97;6.30;;;18.50;87.70;;;;;;5032109;28;20156;-64
2022/05/25 07:52:05;;;;;;;64.05;8.90;;;18.50;87.70;;;;;;5022199;28;20105;-63
2022/05/25 07:54:31;;;;;;;63.78;8.82;;;18.60;87.50;;;;;;5008071;28;20461;-64
2022/05/25 07:56:56;;;;;;;160.95;18.27;;;18.60;87.30;;;;;;5010803;28;20017;-62
2022/05/25 07:59:22;;;;;;;65.20;9.25;;;18.60;87.20;;;;;;5032403;28;20550;-63
2022/05/25 08:07:27;;;;;;;65.10;8.38;;;18.70;86.50;;;;;;5021007;28;20045;-60
2022/05/25 08:09:56;;;;;;;114.82;13.98;;;18.80;86.50;;;;;;5025829;28;20036;-63
2022/05/25 08:12:22;;;;;;;89.28;11.05;;;18.90;86.30;;;;;;5029750;28;20025;-63
2022/05/25 08:14:48;;;;;;;80.30;12.10;;;18.90;86.30;;;;;;5013909;28;20132;-62
2022/05/25 08:17:13;;;;;;;75.07;10.00;;;18.90;85.90;;;;;;5028265;28;20026;-62
2022/05/25 08:19:39;;;;;;;72.55;9.93;;;19.00;85.80;;;;;;4996707;28;20140;-63
2022/05/25 08:22:05;;;;;;;89.18;10.52;;;19.00;85.50;;;;;;5027976;28;20192;-63
2022/05/25 08:24:32;;;;;;;73.25;11.50;;;19.00;85.30;;;;;;5027667;28;20026;-63
2022/05/25 08:26:58;;;;;;;91.93;11.73;;;19.10;85.10;;;;;;5027649;28;20036;-62
2022/05/25 08:29:25;;;;;;;84.20;10.70;;;19.10;84.80;;;;;;5030974;28;20079;-63
2022/05/25 08:31:55;;;;;;;85.15;10.38;;;19.20;84.60;;;;;;5027366;28;20147;-63
2022/05/25 08:34:23;;;;;;;84.13;10.38;;;19.20;84.40;;;;;;5017040;28;20045;-63
2022/05/25 08:36:49;;;;;;;103.72;13.80;;;19.30;84.10;;;;;;5022242;28;20191;-63
2022/05/25 08:39:15;;;;;;;112.95;12.68;;;19.30;83.80;;;;;;4995289;28;20028;-63
2022/05/25 08:41:40;;;;;;;147.00;15.48;;;19.30;83.60;;;;;;5025305;28;20147;-63
2022/05/25 08:44:07;;;;;;;130.20;12.93;;;19.30;83.40;;;;;;4999420;28;20153;-63
2022/05/25 08:46:32;;;;;;;126.65;14.15;;;19.40;83.30;;;;;;4997193;28;20459;-63
2022/05/25 08:49:02;;;;;;;134.30;14.38;;;19.40;83.00;;;;;;5017206;28;20108;-62
2022/05/25 08:51:28;;;;;;;102.45;14.13;;;19.40;82.80;;;;;;5016322;28;20120;-62
2022/05/25 08:53:55;;;;;;;129.15;15.27;;;19.40;82.70;;;;;;5019867;28;20074;-62
2022/05/25 08:56:33;;;;;;;117.10;13.73;;;19.40;82.30;;;;;;5023697;28;20734;-63
2022/05/25 08:59:13;;;;;;;95.20;13.20;;;19.50;81.80;;;;;;5022432;28;20148;-63
2022/05/25 09:01:50;;;;;;;121.97;15.27;;;19.50;81.80;;;;;;5009525;28;20032;-62
2022/05/25 09:04:19;;;;;;;113.93;15.55;;;19.50;81.30;;;;;;5013688;28;20035;-63
2022/05/25 09:07:02;;;;;;;132.80;15.80;;;19.60;80.90;;;;;;5027665;28;20488;-63
2022/05/25 09:09:38;;;;;;;136.48;15.50;;;19.60;80.40;;;;;;5009880;28;20119;-63
2022/05/25 09:12:12;;;;;;;113.40;13.73;;;19.60;80.10;;;;;;5029586;28;20135;-63
2022/05/25 09:14:40;;;;;;;128.30;14.13;;;19.70;80.00;;;;;;5027191;28;20040;-63
2022/05/25 09:17:19;;;;;;;119.78;12.73;;;19.60;79.80;;;;;;5011125;28;20158;-61
2022/05/25 09:19:45;;;;;;;99.70;12.80;;;19.70;79.80;;;;;;5013493;28;20028;-63
2022/05/25 09:22:13;;;;;;;120.05;13.60;;;19.70;79.80;;;;;;4999809;28;20071;-63
2022/05/25 09:24:39;;;;;;;115.10;12.85;;;19.70;79.50;;;;;;5019811;28;20837;-63
2022/05/25 09:27:05;;;;;;;132.90;14.95;;;19.70;79.10;;;;;;5016242;28;20029;-63
2022/05/25 09:29:31;;;;;;;122.65;12.20;;;19.70;79.10;;;;;;5024128;28;20041;-63
2022/05/25 09:32:09;;;;;;;116.65;13.82;;;19.70;79.40;;;;;;5023863;28;20104;-62
2022/05/25 09:35:06;;;;;;;119.03;13.43;;;19.70;79.30;;;;;;5028684;28;20152;-62
2022/05/25 09:37:39;;;;;;;131.13;14.18;;;19.70;79.40;;;;;;5029241;28;20037;-62
2022/05/25 09:40:18;;;;;;;145.35;14.30;;;19.70;79.60;;;;;;5021469;28;20033;-62
2022/05/25 09:42:49;;;;;;;86.07;11.38;;;19.70;79.60;;;;;;5016638;28;20094;-62
2022/05/25 09:45:15;;;;;;;117.00;11.85;;;19.70;79.30;;;;;;4999346;28;20042;-63
2022/05/25 09:47:42;;;;;;;104.63;11.30;;;19.80;79.30;;;;;;4997396;28;20381;-63
2022/05/25 09:50:13;;;;;;;89.78;11.30;;;19.80;78.90;;;;;;5028768;28;20039;-62
2022/05/25 09:52:42;;;;;;;74.85;9.75;;;19.80;78.90;;;;;;5023020;28;20033;-62
2022/05/25 09:55:15;;;;;;;69.50;10.43;;;19.90;78.80;;;;;;4993140;28;20048;-63
2022/05/25 09:57:45;;;;;;;79.22;10.65;;;19.90;78.50;;;;;;5029478;28;20029;-62
2022/05/25 10:00:21;;;;;;;85.60;10.25;;;19.90;78.30;;;;;;4993894;28;20127;-63
2022/05/25 10:02:48;;;;;;;78.00;8.95;;;19.90;78.00;;;;;;5033142;28;20040;-63
2022/05/25 10:05:15;;;;;;;85.85;10.70;;;19.90;78.10;;;;;;5025575;28;20052;-63
2022/05/25 10:07:49;;;;;;;57.85;9.18;;;20.00;78.30;;;;;;5024400;28;21884;-62
2022/05/25 10:10:16;;;;;;;80.20;9.18;;;20.00;78.00;;;;;;5016380;28;20033;-63
2022/05/25 10:12:43;;;;;;;76.47;8.98;;;20.00;77.10;;;;;;5015276;28;20041;-62
2022/05/25 10:15:11;;;;;;;72.07;8.60;;;20.00;76.70;;;;;;5031005;28;20124;-62
2022/05/25 10:17:47;;;;;;;90.72;9.35;;;20.00;77.10;;;;;;5010054;28;20582;-62
2022/05/25 10:20:22;;;;;;;80.57;8.50;;;20.00;76.90;;;;;;5018536;28;20057;-62
2022/05/25 10:22:48;;;;;;;78.30;7.68;;;20.10;76.40;;;;;;5019442;28;20064;-62
2022/05/25 10:25:26;;;;;;;82.07;9.52;;;20.10;76.10;;;;;;5014128;28;20136;-62
2022/05/25 10:27:51;;;;;;;71.40;7.65;;;20.10;75.60;;;;;;5026434;28;20084;-63
2022/05/25 10:39:21;;;;;;;46.65;6.95;;;20.20;73.80;;;;;;5014645;28;20119;-62
2022/05/25 10:42:22;;;;;;;55.47;6.30;;;20.20;72.80;;;;;;5031296;28;20060;-63
2022/05/25 10:45:10;;;;;;;83.72;10.88;;;20.20;73.60;;;;;;5028781;28;20037;-62
2022/05/25 10:47:51;;;;;;;56.47;8.23;;;20.30;72.50;;;;;;5025847;28;20399;-63
2022/05/25 10:50:21;;;;;;;49.47;6.70;;;20.40;72.40;;;;;;5023242;28;21454;-62
2022/05/25 10:52:53;;;;;;;55.92;6.93;;;20.40;72.20;;;;;;4989723;28;20037;-62
2022/05/25 10:55:19;;;;;;;63.10;7.20;;;20.50;71.20;;;;;;5027058;28;20207;-62
2022/05/25 10:57:47;;;;;;;57.45;6.85;;;20.50;71.00;;;;;;5012413;28;20520;-63
2022/05/25 11:00:34;;;;;;;36.72;6.03;;;20.60;70.70;;;;;;5027541;28;20131;-63
2022/05/25 11:03:25;;;;;;;45.58;5.78;;;20.60;70.30;;;;;;5031637;28;20129;-62
2022/05/25 11:05:51;;;;;;;39.22;5.63;;;20.70;69.60;;;;;;5035957;28;20575;-62
2022/05/25 11:08:39;;;;;;;30.10;4.18;;;20.70;70.60;;;;;;5031818;28;20768;-62
2022/05/25 11:11:27;;;;;;;30.50;4.38;;;20.80;68.70;;;;;;5023826;28;20037;-62
2022/05/25 11:14:16;;;;;;;30.75;4.30;;;20.80;68.40;;;;;;5003328;28;20057;-62
2022/05/25 11:17:01;;;;;;;41.90;5.00;;;20.90;68.60;;;;;;5031883;28;20047;-63
2022/05/25 11:20:02;;;;;;;30.42;4.63;;;21.00;69.50;;;;;;5030115;28;20083;-63
2022/05/25 11:22:34;;;;;;;17.92;3.38;;;21.20;67.00;;;;;;5012673;28;20128;-63
2022/05/25 11:25:26;;;;;;;13.73;3.25;;;21.20;66.50;;;;;;5022442;28;20087;-63
2022/05/25 11:28:06;;;;;;;16.33;3.70;;;21.30;66.50;;;;;;5026207;28;20033;-62
2022/05/25 11:30:42;;;;;;;18.92;3.65;;;21.40;67.50;;;;;;5020965;28;20835;-63
2022/05/25 11:33:26;;;;;;;19.58;3.25;;;21.40;66.90;;;;;;5009688;28;20131;-62
2022/05/25 11:36:16;;;;;;;20.33;3.45;;;21.50;66.20;;;;;;5031408;28;20536;-62
2022/05/25 11:38:58;;;;;;;34.17;4.63;;;21.60;65.20;;;;;;5032949;28;20160;-63
2022/05/25 11:41:36;;;;;;;32.35;4.28;;;21.70;65.90;;;;;;4997242;28;20029;-63
2022/05/25 11:44:35;;;;;;;33.88;4.32;;;21.80;65.90;;;;;;5030937;28;20017;-63
2022/05/25 11:47:22;;;;;;;39.05;4.43;;;22.00;65.10;;;;;;5038752;28;20109;-63
2022/05/25 11:50:04;;;;;;;35.92;3.85;;;22.10;65.20;;;;;;5024306;28;20041;-62
2022/05/25 11:53:02;;;;;;;44.60;4.28;;;22.20;64.70;;;;;;5026414;28;20094;-63
2022/05/25 11:55:41;;;;;;;57.65;6.13;;;22.30;64.20;;;;;;5023158;28;20044;-63
2022/05/25 11:58:18;;;;;;;33.53;4.63;;;22.50;63.10;;;;;;5027888;28;20037;-63
2022/05/25 12:00:49;;;;;;;66.22;5.72;;;22.60;63.20;;;;;;5028843;28;20117;-63
2022/05/25 12:03:26;;;;;;;30.90;4.53;;;22.60;62.10;;;;;;5023357;28;20040;-64
2022/05/25 12:06:04;;;;;;;34.28;4.40;;;22.70;63.10;;;;;;5031668;28;20021;-63
2022/05/25 12:08:54;;;;;;;41.95;4.28;;;22.80;62.50;;;;;;5020551;28;20056;-63
2022/05/25 12:11:48;;;;;;;37.28;4.50;;;22.90;62.30;;;;;;5030726;28;20697;-63
2022/05/25 12:14:38;;;;;;;31.17;4.63;;;23.00;61.80;;;;;;5029641;28;20034;-63
2022/05/25 12:17:10;;;;;;;24.13;2.80;;;23.10;61.70;;;;;;5022906;28;20028;-62
2022/05/25 12:19:36;;;;;;;30.15;4.10;;;23.20;62.00;;;;;;5006557;28;20025;-63
2022/05/25 12:22:06;;;;;;;28.67;3.97;;;23.30;61.30;;;;;;5005122;28;20037;-63
2022/05/25 12:24:34;;;;;;;33.95;4.30;;;23.30;61.50;;;;;;5014385;28;20035;-63
2022/05/25 12:27:01;;;;;;;39.40;4.30;;;23.30;61.30;;;;;;5023406;28;20038;-63
2022/05/25 12:29:30;;;;;;;33.00;4.78;;;23.30;61.30;;;;;;5025086;28;20150;-64
2022/05/25 12:31:56;;;;;;;35.78;4.82;;;23.40;61.00;;;;;;5026963;28;20057;-63
2022/05/25 12:34:39;;;;;;;48.65;5.10;;;23.50;60.90;;;;;;5015024;28;20512;-62
2022/05/25 12:37:05;;;;;;;49.83;5.70;;;23.60;61.00;;;;;;5015583;28;20681;-63
2022/05/25 12:39:52;;;;;;;39.50;4.72;;;23.70;61.10;;;;;;5005112;28;20042;-63
2022/05/25 12:42:23;;;;;;;46.42;5.57;;;23.80;61.00;;;;;;5028726;28;20067;-64
2022/05/25 12:50:34;;;;;;;55.72;5.97;;;24.10;60.20;;;;;;5025403;28;20094;-63
2022/05/25 12:53:28;;;;;;;51.15;5.40;;;24.20;60.20;;;;;;5022605;28;20037;-63
2022/05/25 12:56:02;;;;;;;43.70;5.75;;;24.30;59.80;;;;;;5018086;28;20090;-64
2022/05/25 12:58:42;;;;;;;52.47;5.85;;;24.30;59.40;;;;;;5030768;28;20033;-62
2022/05/25 13:01:27;;;;;;;36.58;5.53;;;24.30;59.40;;;;;;5017831;28;20051;-63
2022/05/25 13:03:58;;;;;;;65.95;5.53;;;24.40;59.60;;;;;;5025669;28;20166;-62
2022/05/25 13:06:30;;;;;;;36.50;5.05;;;24.40;58.50;;;;;;5013722;28;20041;-60
2022/05/25 13:08:55;;;;;;;34.80;5.03;;;24.40;59.00;;;;;;5021882;28;20104;-61
2022/05/25 13:11:38;;;;;;;32.65;4.60;;;24.40;59.20;;;;;;5020481;28;20606;-62
2022/05/25 13:14:16;;;;;;;41.88;4.72;;;24.40;59.30;;;;;;5012189;28;20605;-63
2022/05/25 13:16:42;;;;;;;31.77;4.97;;;24.40;59.10;;;;;;5012766;28;21090;-64
2022/05/25 13:19:30;;;;;;;32.47;4.45;;;24.50;59.40;;;;;;5008382;28;20048;-63
2022/05/25 13:22:02;;;;;;;37.47;4.55;;;24.50;59.40;;;;;;5021464;28;20032;-63
2022/05/25 13:24:35;;;;;;;31.88;5.25;;;24.50;59.10;;;;;;5017415;28;20041;-62